createdAt,value
2017-03-29T00:00:07.238Z,1016.43
2017-03-29T00:00:47.964Z,1016.38
2017-03-29T00:01:28.720Z,1016.42
2017-03-29T00:02:09.467Z,1016.41
2017-03-29T00:02:50.226Z,1016.4
2017-03-29T00:03:30.988Z,1016.4
2017-03-29T00:04:11.746Z,1016.4
2017-03-29T00:04:52.498Z,1016.39
2017-03-29T00:05:33.262Z,1016.44
2017-03-29T00:06:14.008Z,1016.4
2017-03-29T00:06:54.759Z,1016.43
2017-03-29T00:07:35.515Z,1016.39
2017-03-29T00:08:16.277Z,1016.44
2017-03-29T00:08:56.919Z,1016.41
2017-03-29T00:09:37.694Z,1016.45
2017-03-29T00:10:18.438Z,1016.45
2017-03-29T00:10:59.187Z,1016.41
2017-03-29T00:11:39.948Z,1016.41
2017-03-29T00:12:20.701Z,1016.4
2017-03-29T00:13:01.460Z,1016.42
2017-03-29T00:13:42.208Z,1016.41
2017-03-29T00:14:22.968Z,1016.4
2017-03-29T00:15:03.727Z,1016.44
2017-03-29T00:15:44.585Z,1016.45
2017-03-29T00:16:25.329Z,1016.45
2017-03-29T00:17:06.089Z,1016.48
2017-03-29T00:17:46.843Z,1016.5
2017-03-29T00:18:27.607Z,1016.46
2017-03-29T00:19:08.202Z,1016.43
2017-03-29T00:19:48.963Z,1016.42
2017-03-29T00:20:29.713Z,1016.44
2017-03-29T00:21:10.414Z,1016.42
2017-03-29T00:21:51.021Z,1016.41
2017-03-29T00:22:31.793Z,1016.45
2017-03-29T00:23:12.475Z,1016.42
2017-03-29T00:23:53.231Z,1016.45
2017-03-29T00:24:33.803Z,1016.44
2017-03-29T00:25:14.410Z,1016.43
2017-03-29T00:25:54.987Z,1016.45
2017-03-29T00:26:35.642Z,1016.45
2017-03-29T00:27:16.213Z,1016.45
2017-03-29T00:27:56.900Z,1016.46
2017-03-29T00:28:37.524Z,1016.48
2017-03-29T00:29:18.165Z,1016.45
2017-03-29T00:29:58.735Z,1016.45
2017-03-29T00:30:39.349Z,1016.48
2017-03-29T00:31:20.003Z,1016.46
2017-03-29T00:32:00.625Z,1016.48
2017-03-29T00:32:41.312Z,1016.46
2017-03-29T00:33:21.965Z,1016.42
2017-03-29T00:34:02.542Z,1016.4
2017-03-29T00:34:43.175Z,1016.43
2017-03-29T00:35:23.822Z,1016.39
2017-03-29T00:36:04.477Z,1016.43
2017-03-29T00:36:45.236Z,1016.42
2017-03-29T00:37:25.883Z,1016.43
2017-03-29T00:38:06.557Z,1016.39
2017-03-29T00:38:47.196Z,1016.42
2017-03-29T00:39:27.849Z,1016.39
2017-03-29T00:40:08.510Z,1016.44
2017-03-29T00:40:49.158Z,1016.45
2017-03-29T00:41:29.801Z,1016.42
2017-03-29T00:42:10.458Z,1016.42
2017-03-29T00:42:51.111Z,1016.44
2017-03-29T00:43:31.768Z,1016.42
2017-03-29T00:44:12.443Z,1016.41
2017-03-29T00:44:53.065Z,1016.4
2017-03-29T00:45:33.725Z,1016.41
2017-03-29T00:46:14.373Z,1016.43
2017-03-29T00:46:56.052Z,1016.4
2017-03-29T00:47:36.705Z,1016.43
2017-03-29T00:48:17.361Z,1016.4
2017-03-29T00:48:58.012Z,1016.38
2017-03-29T00:49:38.660Z,1016.41
2017-03-29T00:50:19.313Z,1016.42
2017-03-29T00:50:59.965Z,1016.48
2017-03-29T00:51:40.626Z,1016.44
2017-03-29T00:52:22.306Z,1016.48
2017-03-29T00:53:02.959Z,1016.46
2017-03-29T00:53:43.605Z,1016.49
2017-03-29T00:54:24.263Z,1016.48
2017-03-29T00:55:04.845Z,1016.47
2017-03-29T00:55:45.564Z,1016.49
2017-03-29T00:56:26.218Z,1016.45
2017-03-29T00:57:06.880Z,1016.53
2017-03-29T00:57:47.446Z,1016.51
2017-03-29T00:58:28.151Z,1016.52
2017-03-29T00:59:08.849Z,1016.52
2017-03-29T00:59:49.486Z,1016.47
2017-03-29T01:00:30.194Z,1016.52
2017-03-29T01:01:10.900Z,1016.46
2017-03-29T01:01:51.575Z,1016.44
2017-03-29T01:02:32.188Z,1016.5
2017-03-29T01:03:12.847Z,1016.44
2017-03-29T01:03:53.502Z,1016.44
2017-03-29T01:04:34.163Z,1016.47
2017-03-29T01:05:14.809Z,1016.49
2017-03-29T01:05:55.462Z,1016.46
2017-03-29T01:06:36.122Z,1016.5
2017-03-29T01:07:16.774Z,1016.44
2017-03-29T01:07:57.419Z,1016.46
2017-03-29T01:08:38.080Z,1016.45
2017-03-29T01:09:18.714Z,1016.47
2017-03-29T01:09:59.384Z,1016.47
2017-03-29T01:10:40.047Z,1016.5
2017-03-29T01:11:20.688Z,1016.51
2017-03-29T01:12:01.348Z,1016.52
2017-03-29T01:12:41.993Z,1016.52
2017-03-29T01:13:22.645Z,1016.46
2017-03-29T01:14:03.303Z,1016.46
2017-03-29T01:14:43.951Z,1016.45
2017-03-29T01:15:24.518Z,1016.45
2017-03-29T01:16:05.153Z,1016.43
2017-03-29T01:16:45.808Z,1016.42
2017-03-29T01:17:26.454Z,1016.46
2017-03-29T01:18:07.120Z,1016.41
2017-03-29T01:18:47.766Z,1016.43
2017-03-29T01:19:28.328Z,1016.42
2017-03-29T01:20:09.029Z,1016.43
2017-03-29T01:20:49.731Z,1016.47
2017-03-29T01:21:30.416Z,1016.46
2017-03-29T01:22:10.977Z,1016.43
2017-03-29T01:22:51.651Z,1016.43
2017-03-29T01:23:32.334Z,1016.49
2017-03-29T01:24:12.963Z,1016.44
2017-03-29T01:24:53.637Z,1016.46
2017-03-29T01:25:34.299Z,1016.48
2017-03-29T01:26:14.942Z,1016.49
2017-03-29T01:26:55.596Z,1016.47
2017-03-29T01:27:36.251Z,1016.48
2017-03-29T01:28:16.902Z,1016.49
2017-03-29T01:28:57.557Z,1016.46
2017-03-29T01:29:38.211Z,1016.49
2017-03-29T01:30:18.863Z,1016.45
2017-03-29T01:30:59.516Z,1016.47
2017-03-29T01:31:40.175Z,1016.44
2017-03-29T01:32:20.820Z,1016.48
2017-03-29T01:33:01.474Z,1016.49
2017-03-29T01:33:42.128Z,1016.42
2017-03-29T01:34:22.711Z,1016.45
2017-03-29T01:35:03.383Z,1016.45
2017-03-29T01:35:43.986Z,1016.48
2017-03-29T01:36:24.642Z,1016.45
2017-03-29T01:37:05.219Z,1016.45
2017-03-29T01:37:45.894Z,1016.46
2017-03-29T01:38:26.599Z,1016.46
2017-03-29T01:39:07.254Z,1016.46
2017-03-29T01:39:47.832Z,1016.44
2017-03-29T01:40:28.520Z,1016.44
2017-03-29T01:41:09.211Z,1016.45
2017-03-29T01:41:49.967Z,1016.47
2017-03-29T01:42:30.543Z,1016.46
2017-03-29T01:43:11.219Z,1016.48
2017-03-29T01:43:51.931Z,1016.49
2017-03-29T01:44:32.583Z,1016.52
2017-03-29T01:45:13.233Z,1016.49
2017-03-29T01:45:53.887Z,1016.47
2017-03-29T01:46:34.542Z,1016.53
2017-03-29T01:47:15.184Z,1016.54
2017-03-29T01:47:55.840Z,1016.53
2017-03-29T01:48:36.500Z,1016.5
2017-03-29T01:49:17.050Z,1016.46
2017-03-29T01:49:57.750Z,1016.52
2017-03-29T01:50:38.454Z,1016.48
2017-03-29T01:51:19.113Z,1016.42
2017-03-29T01:51:59.664Z,1016.42
2017-03-29T01:52:40.400Z,1016.46
2017-03-29T01:53:21.065Z,1016.4
2017-03-29T01:54:01.723Z,1016.44
2017-03-29T01:54:42.296Z,1016.43
2017-03-29T01:55:22.986Z,1016.34
2017-03-29T01:56:03.678Z,1016.35
2017-03-29T01:56:44.330Z,1016.33
2017-03-29T01:57:24.905Z,1016.33
2017-03-29T01:58:05.593Z,1016.31
2017-03-29T01:58:46.288Z,1016.34
2017-03-29T01:59:26.941Z,1016.31
2017-03-29T02:00:07.512Z,1016.34
2017-03-29T02:00:48.210Z,1016.28
2017-03-29T02:01:28.798Z,1016.28
2017-03-29T02:02:09.451Z,1016.29
2017-03-29T02:02:50.044Z,1016.28
2017-03-29T02:03:30.705Z,1016.26
2017-03-29T02:04:11.315Z,1016.31
2017-03-29T02:04:51.961Z,1016.28
2017-03-29T02:05:32.539Z,1016.29
2017-03-29T02:06:13.163Z,1016.3
2017-03-29T02:06:53.818Z,1016.29
2017-03-29T02:07:34.398Z,1016.29
2017-03-29T02:08:15.020Z,1016.35
2017-03-29T02:08:55.674Z,1016.4
2017-03-29T02:09:36.251Z,1016.31
2017-03-29T02:10:16.941Z,1016.32
2017-03-29T02:10:57.639Z,1016.38
2017-03-29T02:11:38.308Z,1016.34
2017-03-29T02:12:18.886Z,1016.36
2017-03-29T02:12:59.560Z,1016.41
2017-03-29T02:13:41.278Z,1016.41
2017-03-29T02:14:21.926Z,1016.38
2017-03-29T02:15:02.579Z,1016.37
2017-03-29T02:15:43.228Z,1016.35
2017-03-29T02:16:23.887Z,1016.37
2017-03-29T02:17:04.531Z,1016.41
2017-03-29T02:17:45.186Z,1016.4
2017-03-29T02:18:25.835Z,1016.38
2017-03-29T02:19:06.554Z,1016.36
2017-03-29T02:19:47.861Z,1016.38
2017-03-29T02:20:28.519Z,1016.4
2017-03-29T02:21:09.170Z,1016.36
2017-03-29T02:21:49.825Z,1016.39
2017-03-29T02:22:30.486Z,1016.43
2017-03-29T02:23:11.133Z,1016.41
2017-03-29T02:23:51.783Z,1016.38
2017-03-29T02:24:32.354Z,1016.41
2017-03-29T02:25:12.997Z,1016.39
2017-03-29T02:25:53.633Z,1016.43
2017-03-29T02:26:34.207Z,1016.4
2017-03-29T02:27:14.919Z,1016.37
2017-03-29T02:27:55.595Z,1016.42
2017-03-29T02:28:36.167Z,1016.42
2017-03-29T02:29:16.794Z,1016.4
2017-03-29T02:29:57.458Z,1016.42
2017-03-29T02:30:38.028Z,1016.39
2017-03-29T02:31:18.668Z,1016.43
2017-03-29T02:31:59.317Z,1016.43
2017-03-29T02:32:39.885Z,1016.41
2017-03-29T02:33:20.504Z,1016.4
2017-03-29T02:34:01.174Z,1016.36
2017-03-29T02:34:41.821Z,1016.36
2017-03-29T02:35:22.468Z,1016.43
2017-03-29T02:36:03.126Z,1016.38
2017-03-29T02:36:43.777Z,1016.4
2017-03-29T02:37:24.544Z,1016.41
2017-03-29T02:38:05.185Z,1016.41
2017-03-29T02:38:45.836Z,1016.39
2017-03-29T02:39:26.469Z,1016.44
2017-03-29T02:40:07.118Z,1016.44
2017-03-29T02:40:47.799Z,1016.44
2017-03-29T02:41:28.446Z,1016.45
2017-03-29T02:42:09.012Z,1016.47
2017-03-29T02:42:49.714Z,1016.44
2017-03-29T02:43:30.462Z,1016.44
2017-03-29T02:44:11.163Z,1016.5
2017-03-29T02:44:51.745Z,1016.5
2017-03-29T02:45:32.423Z,1016.51
2017-03-29T02:46:13.135Z,1016.5
2017-03-29T02:46:53.783Z,1016.53
2017-03-29T02:47:34.355Z,1016.48
2017-03-29T02:48:15.044Z,1016.51
2017-03-29T02:48:55.742Z,1016.52
2017-03-29T02:49:36.394Z,1016.49
2017-03-29T02:50:17.041Z,1016.49
2017-03-29T02:50:57.693Z,1016.46
2017-03-29T02:51:38.450Z,1016.47
2017-03-29T02:52:19.201Z,1016.46
2017-03-29T02:52:59.853Z,1016.47
2017-03-29T02:53:40.611Z,1016.46
2017-03-29T02:54:21.205Z,1016.45
2017-03-29T02:55:01.871Z,1016.42
2017-03-29T02:55:42.579Z,1016.45
2017-03-29T02:56:23.225Z,1016.44
2017-03-29T02:57:03.786Z,1016.45
2017-03-29T02:57:44.481Z,1016.45
2017-03-29T02:58:25.188Z,1016.43
2017-03-29T02:59:05.849Z,1016.45
2017-03-29T02:59:46.496Z,1016.42
2017-03-29T03:00:27.138Z,1016.41
2017-03-29T03:01:07.797Z,1016.46
2017-03-29T03:01:48.454Z,1016.47
2017-03-29T03:02:29.103Z,1016.47
2017-03-29T03:03:09.765Z,1016.47
2017-03-29T03:03:50.412Z,1016.48
2017-03-29T03:04:30.996Z,1016.45
2017-03-29T03:05:11.569Z,1016.47
2017-03-29T03:05:52.315Z,1016.47
2017-03-29T03:06:33.023Z,1016.46
2017-03-29T03:07:13.589Z,1016.48
2017-03-29T03:07:54.276Z,1016.46
2017-03-29T03:08:34.975Z,1016.46
2017-03-29T03:09:15.737Z,1016.48
2017-03-29T03:09:56.400Z,1016.48
2017-03-29T03:10:37.144Z,1016.46
2017-03-29T03:11:17.802Z,1016.44
2017-03-29T03:11:58.451Z,1016.49
2017-03-29T03:12:39.103Z,1016.43
2017-03-29T03:13:19.762Z,1016.44
2017-03-29T03:14:00.410Z,1016.42
2017-03-29T03:14:41.173Z,1016.43
2017-03-29T03:15:21.918Z,1016.43
2017-03-29T03:16:02.605Z,1016.5
2017-03-29T03:16:43.326Z,1016.46
2017-03-29T03:17:23.981Z,1016.46
2017-03-29T03:18:04.630Z,1016.5
2017-03-29T03:18:45.387Z,1016.45
2017-03-29T03:19:26.040Z,1016.52
2017-03-29T03:20:06.795Z,1016.52
2017-03-29T03:20:47.455Z,1016.51
2017-03-29T03:21:28.210Z,1016.53
2017-03-29T03:22:08.858Z,1016.58
2017-03-29T03:22:49.612Z,1016.51
2017-03-29T03:23:30.270Z,1016.51
2017-03-29T03:24:10.919Z,1016.52
2017-03-29T03:24:51.576Z,1016.5
2017-03-29T03:25:32.181Z,1016.48
2017-03-29T03:26:12.801Z,1016.47
2017-03-29T03:26:53.377Z,1016.48
2017-03-29T03:27:34.109Z,1016.48
2017-03-29T03:28:14.839Z,1016.45
2017-03-29T03:28:55.595Z,1016.48
2017-03-29T03:29:36.147Z,1016.43
2017-03-29T03:30:16.767Z,1016.45
2017-03-29T03:30:57.476Z,1016.46
2017-03-29T03:31:38.208Z,1016.49
2017-03-29T03:32:18.814Z,1016.45
2017-03-29T03:32:59.563Z,1016.48
2017-03-29T03:33:40.328Z,1016.48
2017-03-29T03:34:21.024Z,1016.46
2017-03-29T03:35:01.774Z,1016.45
2017-03-29T03:35:42.543Z,1016.44
2017-03-29T03:36:23.185Z,1016.43
2017-03-29T03:37:03.848Z,1016.44
2017-03-29T03:37:44.494Z,1016.38
2017-03-29T03:38:25.147Z,1016.44
2017-03-29T03:39:05.799Z,1016.45
2017-03-29T03:39:46.416Z,1016.39
2017-03-29T03:40:27.128Z,1016.43
2017-03-29T03:41:07.862Z,1016.41
2017-03-29T03:41:48.434Z,1016.39
2017-03-29T03:42:29.186Z,1016.39
2017-03-29T03:43:09.924Z,1016.36
2017-03-29T03:43:50.544Z,1016.37
2017-03-29T03:44:31.225Z,1016.42
2017-03-29T03:45:11.982Z,1016.39
2017-03-29T03:45:52.738Z,1016.43
2017-03-29T03:46:34.417Z,1016.41
2017-03-29T03:47:15.169Z,1016.39
2017-03-29T03:47:55.816Z,1016.38
2017-03-29T03:48:36.488Z,1016.41
2017-03-29T03:49:17.124Z,1016.41
2017-03-29T03:49:57.883Z,1016.43
2017-03-29T03:50:38.541Z,1016.43
2017-03-29T03:51:19.290Z,1016.41
2017-03-29T03:52:00.065Z,1016.41
2017-03-29T03:52:40.805Z,1016.41
2017-03-29T03:53:21.553Z,1016.39
2017-03-29T03:54:02.233Z,1016.43
2017-03-29T03:54:42.938Z,1016.41
2017-03-29T03:55:23.619Z,1016.43
2017-03-29T03:56:04.375Z,1016.41
2017-03-29T03:56:44.975Z,1016.4
2017-03-29T03:57:25.679Z,1016.39
2017-03-29T03:58:06.336Z,1016.39
2017-03-29T03:58:46.920Z,1016.39
2017-03-29T03:59:27.635Z,1016.42
2017-03-29T04:00:08.289Z,1016.44
2017-03-29T04:00:48.894Z,1016.39
2017-03-29T04:01:29.563Z,1016.42
2017-03-29T04:02:10.257Z,1016.45
2017-03-29T04:02:50.928Z,1016.39
2017-03-29T04:03:31.507Z,1016.42
2017-03-29T04:04:12.162Z,1016.4
2017-03-29T04:04:52.858Z,1016.41
2017-03-29T04:05:33.474Z,1016.42
2017-03-29T04:06:14.065Z,1016.44
2017-03-29T04:06:54.817Z,1016.41
2017-03-29T04:07:35.390Z,1016.37
2017-03-29T04:08:16.147Z,1016.39
2017-03-29T04:08:56.822Z,1016.42
2017-03-29T04:09:37.408Z,1016.43
2017-03-29T04:10:18.084Z,1016.41
2017-03-29T04:10:58.738Z,1016.39
2017-03-29T04:11:39.300Z,1016.44
2017-03-29T04:12:20.008Z,1016.43
2017-03-29T04:13:00.715Z,1016.46
2017-03-29T04:13:41.349Z,1016.47
2017-03-29T04:14:21.924Z,1016.44
2017-03-29T04:15:02.564Z,1016.44
2017-03-29T04:15:43.308Z,1016.42
2017-03-29T04:16:23.864Z,1016.43
2017-03-29T04:17:04.522Z,1016.42
2017-03-29T04:17:45.270Z,1016.4
2017-03-29T04:18:25.851Z,1016.4
2017-03-29T04:19:06.569Z,1016.36
2017-03-29T04:19:47.237Z,1016.38
2017-03-29T04:20:27.849Z,1016.4
2017-03-29T04:21:08.474Z,1016.34
2017-03-29T04:21:49.184Z,1016.36
2017-03-29T04:22:29.847Z,1016.39
2017-03-29T04:23:10.435Z,1016.4
2017-03-29T04:23:51.136Z,1016.35
2017-03-29T04:24:31.804Z,1016.34
2017-03-29T04:25:12.555Z,1016.38
2017-03-29T04:25:53.133Z,1016.28
2017-03-29T04:26:33.815Z,1016.34
2017-03-29T04:27:14.509Z,1016.33
2017-03-29T04:27:55.267Z,1016.35
2017-03-29T04:28:35.875Z,1016.36
2017-03-29T04:29:16.539Z,1016.33
2017-03-29T04:29:57.224Z,1016.35
2017-03-29T04:30:37.830Z,1016.33
2017-03-29T04:31:18.535Z,1016.32
2017-03-29T04:31:59.182Z,1016.36
2017-03-29T04:32:39.790Z,1016.36
2017-03-29T04:33:20.486Z,1016.37
2017-03-29T04:34:01.249Z,1016.37
2017-03-29T04:34:41.841Z,1016.38
2017-03-29T04:35:22.773Z,1016.36
2017-03-29T04:36:03.927Z,1016.33
2017-03-29T04:36:44.500Z,1016.34
2017-03-29T04:37:25.298Z,1016.3
2017-03-29T04:38:05.972Z,1016.3
2017-03-29T04:38:46.638Z,1016.28
2017-03-29T04:39:27.202Z,1016.34
2017-03-29T04:40:07.908Z,1016.33
2017-03-29T04:40:48.607Z,1016.33
2017-03-29T04:41:29.403Z,1016.35
2017-03-29T04:42:09.998Z,1016.36
2017-03-29T04:42:50.718Z,1016.39
2017-03-29T04:43:31.419Z,1016.37
2017-03-29T04:44:12.069Z,1016.38
2017-03-29T04:44:52.721Z,1016.37
2017-03-29T04:45:33.477Z,1016.33
2017-03-29T04:46:14.228Z,1016.34
2017-03-29T04:46:54.883Z,1016.37
2017-03-29T04:47:35.642Z,1016.38
2017-03-29T04:48:16.392Z,1016.38
2017-03-29T04:48:57.162Z,1016.35
2017-03-29T04:49:37.906Z,1016.35
2017-03-29T04:50:18.573Z,1016.31
2017-03-29T04:50:59.212Z,1016.33
2017-03-29T04:51:39.987Z,1016.33
2017-03-29T04:52:20.722Z,1016.33
2017-03-29T04:53:01.411Z,1016.31
2017-03-29T04:53:42.130Z,1016.31
2017-03-29T04:54:22.893Z,1016.25
2017-03-29T04:55:03.651Z,1016.24
2017-03-29T04:55:44.338Z,1016.27
2017-03-29T04:56:25.049Z,1016.32
2017-03-29T04:57:05.704Z,1016.35
2017-03-29T04:57:46.458Z,1016.37
2017-03-29T04:58:27.212Z,1016.37
2017-03-29T04:59:07.969Z,1016.39
2017-03-29T04:59:48.722Z,1016.43
2017-03-29T05:00:29.390Z,1016.42
2017-03-29T05:01:10.230Z,1016.4
2017-03-29T05:01:50.999Z,1016.43
2017-03-29T05:02:31.848Z,1016.47
2017-03-29T05:03:12.601Z,1016.49
2017-03-29T05:03:53.255Z,1016.5
2017-03-29T05:04:33.818Z,1016.47
2017-03-29T05:05:14.656Z,1016.48
2017-03-29T05:05:55.456Z,1016.51
2017-03-29T05:06:36.175Z,1016.51
2017-03-29T05:07:16.753Z,1016.53
2017-03-29T05:07:57.439Z,1016.55
2017-03-29T05:08:38.124Z,1016.54
2017-03-29T05:09:18.785Z,1016.55
2017-03-29T05:09:59.368Z,1016.52
2017-03-29T05:10:40.065Z,1016.55
2017-03-29T05:11:20.826Z,1016.58
2017-03-29T05:12:01.497Z,1016.6
2017-03-29T05:12:42.149Z,1016.58
2017-03-29T05:13:22.888Z,1016.55
2017-03-29T05:14:03.794Z,1016.62
2017-03-29T05:14:44.524Z,1016.62
2017-03-29T05:15:25.450Z,1016.62
2017-03-29T05:16:06.243Z,1016.61
2017-03-29T05:16:47.287Z,1016.59
2017-03-29T05:17:27.964Z,1016.6
2017-03-29T05:18:08.607Z,1016.57
2017-03-29T05:18:49.361Z,1016.62
2017-03-29T05:19:30.228Z,1016.61
2017-03-29T05:20:10.798Z,1016.62
2017-03-29T05:20:51.627Z,1016.61
2017-03-29T05:21:32.390Z,1016.63
2017-03-29T05:22:13.271Z,1016.61
2017-03-29T05:22:53.895Z,1016.64
2017-03-29T05:23:34.526Z,1016.61
2017-03-29T05:24:15.154Z,1016.62
2017-03-29T05:24:55.875Z,1016.63
2017-03-29T05:25:36.483Z,1016.56
2017-03-29T05:26:17.678Z,1016.6
2017-03-29T05:26:59.637Z,1016.54
2017-03-29T05:27:40.704Z,1016.57
2017-03-29T05:28:21.512Z,1016.53
2017-03-29T05:29:02.255Z,1016.58
2017-03-29T05:29:42.838Z,1016.51
2017-03-29T05:30:23.889Z,1016.55
2017-03-29T05:31:04.623Z,1016.53
2017-03-29T05:31:45.225Z,1016.53
2017-03-29T05:32:25.978Z,1016.49
2017-03-29T05:33:06.685Z,1016.49
2017-03-29T05:33:47.436Z,1016.5
2017-03-29T05:34:28.008Z,1016.5
2017-03-29T05:35:08.596Z,1016.54
2017-03-29T05:35:49.452Z,1016.49
2017-03-29T05:36:30.239Z,1016.54
2017-03-29T05:37:11.074Z,1016.5
2017-03-29T05:37:51.818Z,1016.5
2017-03-29T05:38:32.581Z,1016.51
2017-03-29T05:39:14.362Z,1016.57
2017-03-29T05:39:55.109Z,1016.57
2017-03-29T05:40:35.821Z,1016.56
2017-03-29T05:41:16.468Z,1016.59
2017-03-29T05:41:57.055Z,1016.59
2017-03-29T05:42:37.842Z,1016.55
2017-03-29T05:43:18.630Z,1016.53
2017-03-29T05:43:59.279Z,1016.54
2017-03-29T05:44:39.864Z,1016.59
2017-03-29T05:45:20.648Z,1016.6
2017-03-29T05:46:01.237Z,1016.59
2017-03-29T05:46:41.997Z,1016.61
2017-03-29T05:47:22.574Z,1016.65
2017-03-29T05:48:03.354Z,1016.65
2017-03-29T05:48:43.958Z,1016.65
2017-03-29T05:49:24.760Z,1016.67
2017-03-29T05:50:05.362Z,1016.69
2017-03-29T05:50:46.116Z,1016.69
2017-03-29T05:51:26.774Z,1016.65
2017-03-29T05:52:07.427Z,1016.65
2017-03-29T05:52:48.077Z,1016.66
2017-03-29T05:53:28.733Z,1016.69
2017-03-29T05:54:09.405Z,1016.67
2017-03-29T05:54:50.061Z,1016.64
2017-03-29T05:55:30.721Z,1016.65
2017-03-29T05:56:11.343Z,1016.65
2017-03-29T05:56:51.997Z,1016.68
2017-03-29T05:57:32.650Z,1016.73
2017-03-29T05:58:13.326Z,1016.7
2017-03-29T05:58:54.068Z,1016.75
2017-03-29T05:59:34.711Z,1016.75
2017-03-29T06:00:15.363Z,1016.77
2017-03-29T06:00:55.983Z,1016.74
2017-03-29T06:01:36.669Z,1016.77
2017-03-29T06:02:17.323Z,1016.82
2017-03-29T06:02:57.872Z,1016.81
2017-03-29T06:03:38.588Z,1016.76
2017-03-29T06:04:19.172Z,1016.76
2017-03-29T06:04:59.827Z,1016.79
2017-03-29T06:05:40.588Z,1016.77
2017-03-29T06:06:21.240Z,1016.77
2017-03-29T06:07:01.897Z,1016.78
2017-03-29T06:07:42.541Z,1016.77
2017-03-29T06:08:23.197Z,1016.71
2017-03-29T06:09:04.769Z,1016.77
2017-03-29T06:09:45.394Z,1016.77
2017-03-29T06:10:26.051Z,1016.74
2017-03-29T06:11:06.735Z,1016.77
2017-03-29T06:11:47.386Z,1016.84
2017-03-29T06:12:27.987Z,1016.84
2017-03-29T06:13:08.665Z,1016.85
2017-03-29T06:13:49.322Z,1016.83
2017-03-29T06:14:31.940Z,1016.77
2017-03-29T06:15:12.572Z,1016.77
2017-03-29T06:15:55.183Z,1016.8
2017-03-29T06:16:35.842Z,1016.78
2017-03-29T06:17:16.744Z,1016.79
2017-03-29T06:17:57.348Z,1016.81
2017-03-29T06:18:38.003Z,1016.8
2017-03-29T06:19:18.640Z,1016.75
2017-03-29T06:19:59.302Z,1016.79
2017-03-29T06:20:40.054Z,1016.8
2017-03-29T06:21:20.717Z,1016.89
2017-03-29T06:22:01.364Z,1016.89
2017-03-29T06:22:42.008Z,1016.79
2017-03-29T06:23:22.665Z,1016.8
2017-03-29T06:24:03.319Z,1016.77
2017-03-29T06:24:43.883Z,1016.8
2017-03-29T06:25:24.555Z,1016.83
2017-03-29T06:26:05.202Z,1016.79
2017-03-29T06:26:45.839Z,1016.82
2017-03-29T06:27:26.455Z,1016.87
2017-03-29T06:28:07.106Z,1016.84
2017-03-29T06:28:47.685Z,1016.86
2017-03-29T06:29:28.340Z,1016.87
2017-03-29T06:30:08.891Z,1016.91
2017-03-29T06:30:49.508Z,1016.93
2017-03-29T06:31:30.194Z,1016.99
2017-03-29T06:32:10.852Z,1016.97
2017-03-29T06:32:51.424Z,1017.02
2017-03-29T06:33:32.039Z,1016.99
2017-03-29T06:34:12.721Z,1016.96
2017-03-29T06:34:53.356Z,1016.98
2017-03-29T06:35:33.933Z,1017.03
2017-03-29T06:36:14.623Z,1016.99
2017-03-29T06:36:56.235Z,1016.97
2017-03-29T06:37:36.909Z,1016.97
2017-03-29T06:38:17.549Z,1016.98
2017-03-29T06:38:58.273Z,1016.99
2017-03-29T06:39:38.964Z,1017.04
2017-03-29T06:40:19.624Z,1017.01
2017-03-29T06:41:00.197Z,1017.04
2017-03-29T06:41:40.965Z,1017.06
2017-03-29T06:42:21.714Z,1017.08
2017-03-29T06:43:02.419Z,1017.06
2017-03-29T06:43:43.024Z,1017.08
2017-03-29T06:44:23.671Z,1017.08
2017-03-29T06:45:04.279Z,1017.11
2017-03-29T06:45:44.926Z,1017.09
2017-03-29T06:46:25.698Z,1017.09
2017-03-29T06:47:06.345Z,1017.11
2017-03-29T06:47:46.980Z,1017.08
2017-03-29T06:48:27.645Z,1017.09
2017-03-29T06:49:08.294Z,1017.07
2017-03-29T06:49:48.950Z,1017.11
2017-03-29T06:50:29.634Z,1017.02
2017-03-29T06:51:10.228Z,1017.01
2017-03-29T06:51:50.839Z,1017.05
2017-03-29T06:52:31.460Z,1017
2017-03-29T06:53:12.062Z,1017.01
2017-03-29T06:53:52.650Z,1016.98
2017-03-29T06:54:33.319Z,1017
2017-03-29T06:55:13.969Z,1017
2017-03-29T06:55:54.618Z,1017.02
2017-03-29T06:56:35.270Z,1017.03
2017-03-29T06:57:15.928Z,1016.99
2017-03-29T06:57:56.578Z,1017.04
2017-03-29T06:58:37.234Z,1016.97
2017-03-29T06:59:17.884Z,1016.99
2017-03-29T06:59:59.562Z,1016.96
2017-03-29T07:00:40.214Z,1016.99
2017-03-29T07:01:20.882Z,1016.97
2017-03-29T07:02:01.527Z,1016.96
2017-03-29T07:02:42.177Z,1016.99
2017-03-29T07:03:22.827Z,1016.99
2017-03-29T07:04:03.523Z,1017
2017-03-29T07:04:44.201Z,1016.95
2017-03-29T07:05:24.803Z,1016.95
2017-03-29T07:06:05.417Z,1017
2017-03-29T07:06:45.991Z,1016.99
2017-03-29T07:07:26.652Z,1017.04
2017-03-29T07:08:07.251Z,1017.06
2017-03-29T07:08:47.966Z,1017.09
2017-03-29T07:09:28.600Z,1017.03
2017-03-29T07:10:09.256Z,1017.02
2017-03-29T07:10:49.913Z,1017.05
2017-03-29T07:11:30.558Z,1017.04
2017-03-29T07:12:11.217Z,1017.03
2017-03-29T07:12:51.868Z,1017.06
2017-03-29T07:13:32.521Z,1017.05
2017-03-29T07:14:13.181Z,1017.06
2017-03-29T07:14:53.825Z,1017.01
2017-03-29T07:15:34.444Z,1017.04
2017-03-29T07:16:15.114Z,1017.04
2017-03-29T07:16:55.793Z,1017.04
2017-03-29T07:17:36.442Z,1017.03
2017-03-29T07:18:17.011Z,1017.08
2017-03-29T07:18:57.590Z,1017.05
2017-03-29T07:19:38.200Z,1017.01
2017-03-29T07:20:18.844Z,1017.05
2017-03-29T07:20:59.546Z,1017
2017-03-29T07:21:40.158Z,1017
2017-03-29T07:22:21.839Z,1016.97
2017-03-29T07:23:02.477Z,1016.94
2017-03-29T07:23:44.158Z,1016.95
2017-03-29T07:24:24.813Z,1016.98
2017-03-29T07:25:05.479Z,1016.99
2017-03-29T07:25:46.114Z,1017
2017-03-29T07:26:26.793Z,1016.99
2017-03-29T07:27:07.436Z,1017
2017-03-29T07:27:49.107Z,1017.02
2017-03-29T07:28:29.856Z,1016.98
2017-03-29T07:29:10.778Z,1016.96
2017-03-29T07:29:51.590Z,1016.93
2017-03-29T07:30:32.308Z,1016.94
2017-03-29T07:31:13.022Z,1016.96
2017-03-29T07:31:53.762Z,1016.95
2017-03-29T07:32:34.380Z,1016.98
2017-03-29T07:33:15.059Z,1016.96
2017-03-29T07:33:55.735Z,1017.01
2017-03-29T07:34:36.442Z,1017.06
2017-03-29T07:35:17.089Z,1017.02
2017-03-29T07:35:57.757Z,1017.03
2017-03-29T07:36:38.392Z,1017.03
2017-03-29T07:37:18.975Z,1017.02
2017-03-29T07:37:59.578Z,1016.98
2017-03-29T07:38:40.247Z,1017.05
2017-03-29T07:39:20.816Z,1017
2017-03-29T07:40:01.443Z,1017.03
2017-03-29T07:40:42.124Z,1016.97
2017-03-29T07:41:22.772Z,1016.97
2017-03-29T07:42:03.412Z,1017
2017-03-29T07:42:44.059Z,1016.98
2017-03-29T07:43:24.707Z,1016.98
2017-03-29T07:44:05.391Z,1016.97
2017-03-29T07:44:46.013Z,1017.01
2017-03-29T07:45:26.673Z,1017
2017-03-29T07:46:07.368Z,1016.99
2017-03-29T07:46:49.007Z,1016.95
2017-03-29T07:47:29.701Z,1016.97
2017-03-29T07:48:10.277Z,1017.02
2017-03-29T07:48:50.876Z,1017.02
2017-03-29T07:49:31.512Z,1016.97
2017-03-29T07:50:12.167Z,1016.96
2017-03-29T07:50:53.843Z,1016.97
2017-03-29T07:51:34.426Z,1017
2017-03-29T07:52:15.060Z,1017.02
2017-03-29T07:52:55.704Z,1017.01
2017-03-29T07:53:36.284Z,1017.04
2017-03-29T07:54:16.896Z,1017.07
2017-03-29T07:54:57.579Z,1017.02
2017-03-29T07:55:38.205Z,1017.04
2017-03-29T07:56:18.901Z,1017.05
2017-03-29T07:56:59.512Z,1017.04
2017-03-29T07:57:40.168Z,1017.12
2017-03-29T07:58:20.817Z,1017.09
2017-03-29T07:59:01.648Z,1017.01
2017-03-29T07:59:42.467Z,1017.08
2017-03-29T08:00:23.038Z,1017.05
2017-03-29T08:01:03.687Z,1017.04
2017-03-29T08:01:44.305Z,1017.05
2017-03-29T08:02:24.957Z,1017.08
2017-03-29T08:03:05.563Z,1017.08
2017-03-29T08:03:46.197Z,1017.1
2017-03-29T08:04:26.789Z,1017.11
2017-03-29T08:05:07.452Z,1017.12
2017-03-29T08:05:48.026Z,1017.1
2017-03-29T08:06:28.625Z,1017.12
2017-03-29T08:07:09.301Z,1017.11
2017-03-29T08:07:49.961Z,1017.21
2017-03-29T08:08:30.535Z,1017.12
2017-03-29T08:09:11.185Z,1017.13
2017-03-29T08:09:51.812Z,1017.15
2017-03-29T08:10:32.470Z,1017.2
2017-03-29T08:11:13.125Z,1017.18
2017-03-29T08:11:53.776Z,1017.23
2017-03-29T08:12:34.429Z,1017.2
2017-03-29T08:13:15.005Z,1017.19
2017-03-29T08:13:55.629Z,1017.21